Time;durP1;ratioP1;P1;durP2;ratioP2;P2;SDS_P1;SDS_P2;PMS_P1;PMS_P2;Temp;Humidity;BMP_temperature;BMP_pressure;BME280_temperature;BME280_humidity;BME280_pressure;Samples;Min_cycle;Max_cycle;Signal;HPM_P1;HPM_P2
2022/07/29 00:00:56;;;;;;;3.22;2.50;;;23.50;99.90;;;;;;7386969;19;20561;-75
2022/07/29 00:03:21;;;;;;;4.15;2.85;;;23.50;99.90;;;;;;7385400;19;20154;-77
2022/07/29 00:05:47;;;;;;;4.45;2.60;;;23.50;99.90;;;;;;7388975;19;20592;-77
2022/07/29 00:08:13;;;;;;;3.38;2.63;;;23.50;99.90;;;;;;7387918;19;20142;-76
2022/07/29 00:10:39;;;;;;;3.25;2.35;;;23.50;99.90;;;;;;7387714;19;20205;-76
2022/07/29 00:13:04;;;;;;;4.07;2.88;;;23.60;99.90;;;;;;7387671;19;20147;-76
2022/07/29 00:15:30;;;;;;;4.20;2.75;;;23.50;99.90;;;;;;7384076;19;20127;-76
2022/07/29 00:17:56;;;;;;;4.68;2.72;;;23.40;99.90;;;;;;7389897;19;20190;-76
2022/07/29 00:20:22;;;;;;;3.38;2.80;;;23.50;99.90;;;;;;7388025;19;20150;-76
2022/07/29 00:22:47;;;;;;;3.85;2.88;;;23.60;99.90;;;;;;7385665;19;20546;-78
2022/07/29 00:25:13;;;;;;;4.35;3.50;;;23.40;99.90;;;;;;7391625;19;20139;-76
2022/07/29 00:27:39;;;;;;;4.10;2.88;;;23.40;99.90;;;;;;7385665;19;20420;-77
2022/07/29 00:30:07;;;;;;;3.40;3.05;;;23.40;99.90;;;;;;7381773;19;20470;-76
2022/07/29 00:32:36;;;;;;;4.68;3.42;;;23.40;99.90;;;;;;7387179;19;20160;-75
2022/07/29 00:37:46;;;;;;;3.60;3.00;;;23.40;99.90;;;;;;7388100;19;20205;-76
2022/07/29 00:40:12;;;;;;;5.53;3.10;;;23.50;99.90;;;;;;7387830;19;20150;-77
2022/07/29 00:42:49;;;;;;;3.38;2.83;;;23.30;99.90;;;;;;7388090;19;20221;-77
2022/07/29 00:45:16;;;;;;;3.80;2.78;;;23.30;99.90;;;;;;7388480;19;20146;-77
2022/07/29 00:47:47;;;;;;;3.40;2.88;;;23.30;99.90;;;;;;7390248;19;20186;-76
2022/07/29 00:50:14;;;;;;;4.00;2.88;;;23.40;99.90;;;;;;7396694;19;20145;-77
2022/07/29 00:52:41;;;;;;;3.97;2.78;;;23.40;99.90;;;;;;7393987;19;20149;-76
2022/07/29 00:55:09;;;;;;;8.75;3.55;;;23.40;99.90;;;;;;7395654;19;20155;-77
2022/07/29 00:57:35;;;;;;;4.40;3.45;;;23.40;99.90;;;;;;7397786;19;20146;-76
2022/07/29 01:00:05;;;;;;;3.17;2.88;;;23.30;99.90;;;;;;7395273;19;20154;-75
2022/07/29 01:02:30;;;;;;;3.47;2.90;;;23.30;99.90;;;;;;7398631;19;20167;-77
2022/07/29 01:04:57;;;;;;;5.13;3.10;;;23.20;99.90;;;;;;7397723;19;20135;-77
2022/07/29 01:07:25;;;;;;;4.75;2.67;;;23.30;99.90;;;;;;7395417;19;20154;-76
2022/07/29 01:09:53;;;;;;;4.38;3.22;;;23.30;99.90;;;;;;7395180;19;20210;-77
2022/07/29 01:12:25;;;;;;;6.28;3.30;;;23.30;99.90;;;;;;7390212;19;20146;-76
2022/07/29 01:14:53;;;;;;;3.95;2.80;;;23.30;99.90;;;;;;7396151;19;20159;-77
2022/07/29 01:17:28;;;;;;;2.78;2.58;;;23.30;99.90;;;;;;7395703;19;20703;-78
2022/07/29 01:20:12;;;;;;;3.25;2.35;;;23.20;99.90;;;;;;7395797;19;20150;-76
2022/07/29 01:22:56;;;;;;;3.95;2.67;;;23.20;99.90;;;;;;7390709;19;20162;-77
2022/07/29 01:26:00;;;;;;;5.00;2.67;;;23.30;99.90;;;;;;7394251;19;20604;-76
2022/07/29 01:29:00;;;;;;;2.95;2.30;;;23.30;99.90;;;;;;7393548;19;20471;-76
2022/07/29 01:31:45;;;;;;;3.45;2.50;;;23.30;99.90;;;;;;7395366;19;20150;-76
2022/07/29 01:34:20;;;;;;;4.75;2.42;;;23.40;99.90;;;;;;7389399;19;20135;-76
2022/07/29 01:36:56;;;;;;;9.05;3.22;;;23.30;99.90;;;;;;7397371;19;20134;-76
2022/07/29 01:39:34;;;;;;;4.70;2.92;;;23.40;99.90;;;;;;7392166;19;20166;-76
2022/07/29 01:42:06;;;;;;;5.40;3.13;;;23.50;99.90;;;;;;7390720;19;20769;-76
2022/07/29 01:44:45;;;;;;;3.97;3.08;;;23.40;99.90;;;;;;7393204;19;20131;-76
2022/07/29 01:47:15;;;;;;;5.47;3.00;;;23.40;99.90;;;;;;7396327;19;20130;-76
2022/07/29 01:49:49;;;;;;;3.45;2.70;;;23.40;99.90;;;;;;7394599;19;20149;-77
2022/07/29 01:52:21;;;;;;;4.78;2.83;;;23.40;99.90;;;;;;7393343;19;20925;-76
2022/07/29 01:55:02;;;;;;;4.50;2.65;;;23.30;99.90;;;;;;7392441;19;20245;-76
2022/07/29 01:57:31;;;;;;;3.05;2.75;;;23.30;99.90;;;;;;7393834;19;20150;-76
2022/07/29 01:59:59;;;;;;;4.30;2.95;;;23.30;99.90;;;;;;7389892;19;20135;-76
2022/07/29 02:02:27;;;;;;;8.80;2.85;;;23.40;99.90;;;;;;7392310;19;20175;-77
2022/07/29 02:04:56;;;;;;;4.22;3.13;;;23.40;99.90;;;;;;7392552;19;20147;-76
2022/07/29 02:07:24;;;;;;;3.83;2.70;;;23.30;99.90;;;;;;7391154;19;20233;-76
2022/07/29 02:09:51;;;;;;;2.53;2.20;;;23.30;99.90;;;;;;7392679;19;20615;-76
2022/07/29 02:12:19;;;;;;;5.15;2.88;;;23.20;99.90;;;;;;7394250;19;20134;-76
2022/07/29 02:14:51;;;;;;;5.25;2.42;;;23.20;99.90;;;;;;7392182;19;20180;-76
2022/07/29 02:17:28;;;;;;;2.47;2.28;;;23.20;99.90;;;;;;7390502;19;20157;-76
2022/07/29 02:19:58;;;;;;;2.60;2.40;;;23.10;99.90;;;;;;7393953;19;20217;-76
2022/07/29 02:22:26;;;;;;;3.60;2.60;;;23.10;99.90;;;;;;7390944;19;20183;-76
2022/07/29 02:24:53;;;;;;;3.58;2.70;;;23.10;99.90;;;;;;7394796;19;20134;-76
2022/07/29 02:27:20;;;;;;;3.25;2.75;;;23.00;99.90;;;;;;7387277;19;20181;-76
2022/07/29 02:29:48;;;;;;;3.67;2.47;;;23.00;99.90;;;;;;7392278;19;20138;-76
2022/07/29 02:32:16;;;;;;;2.95;2.65;;;23.00;99.90;;;;;;7390327;19;20154;-76
2022/07/29 02:34:43;;;;;;;3.92;2.63;;;22.90;99.90;;;;;;7391728;19;20161;-76
2022/07/29 02:37:11;;;;;;;3.10;2.67;;;22.90;99.90;;;;;;7389241;19;20153;-75
2022/07/29 02:39:38;;;;;;;5.35;2.50;;;22.90;99.90;;;;;;7395320;19;20581;-76
2022/07/29 02:42:08;;;;;;;4.43;3.15;;;23.00;99.90;;;;;;7390898;19;20463;-76
2022/07/29 02:44:34;;;;;;;4.97;2.67;;;23.00;99.90;;;;;;7391093;19;20596;-76
2022/07/29 02:47:21;;;;;;;2.30;2.10;;;22.80;99.90;;;;;;7392863;19;20815;-73
2022/07/29 02:50:00;;;;;;;4.22;2.50;;;22.90;99.90;;;;;;7392541;19;20643;-74
2022/07/29 02:52:36;;;;;;;3.75;2.58;;;22.70;99.90;;;;;;7388723;19;20209;-73
2022/07/29 02:55:15;;;;;;;2.70;2.20;;;22.90;99.90;;;;;;7391380;19;20138;-74
2022/07/29 02:57:49;;;;;;;2.45;2.25;;;22.90;99.90;;;;;;7390530;19;20138;-74
2022/07/29 03:00:16;;;;;;;3.05;2.10;;;22.80;99.90;;;;;;7391323;19;20225;-73
2022/07/29 03:02:49;;;;;;;3.38;2.30;;;22.70;99.90;;;;;;7392688;19;20167;-73
2022/07/29 03:05:20;;;;;;;2.92;2.30;;;22.80;99.90;;;;;;7392590;19;20181;-73
2022/07/29 03:07:52;;;;;;;2.88;2.30;;;22.80;99.90;;;;;;7391508;19;20581;-73
2022/07/29 03:10:18;;;;;;;3.75;2.42;;;22.70;99.90;;;;;;7392782;19;20139;-74
2022/07/29 03:12:45;;;;;;;2.65;2.20;;;22.80;99.90;;;;;;7391766;19;20459;-72
2022/07/29 03:15:11;;;;;;;2.83;2.38;;;22.70;99.90;;;;;;7392901;19;20139;-73
2022/07/29 03:17:39;;;;;;;2.47;2.20;;;22.20;99.90;;;;;;7391248;19;20131;-72
2022/07/29 03:20:06;;;;;;;3.05;2.10;;;22.00;99.90;;;;;;7389804;19;20159;-73
2022/07/29 03:22:32;;;;;;;3.22;2.30;;;21.90;99.90;;;;;;7390006;19;20154;-74
2022/07/29 03:25:08;;;;;;;2.90;1.98;;;21.60;99.90;;;;;;7392484;19;20503;-73
2022/07/29 03:27:34;;;;;;;4.38;2.55;;;21.70;99.90;;;;;;7390763;19;20213;-72
2022/07/29 03:30:00;;;;;;;2.47;2.28;;;21.60;99.90;;;;;;7390667;19;20222;-73
2022/07/29 03:32:25;;;;;;;2.92;2.20;;;21.70;99.90;;;;;;7389309;19;20770;-73
2022/07/29 03:34:51;;;;;;;2.65;2.28;;;21.80;99.90;;;;;;7390081;19;20145;-73
2022/07/29 03:37:17;;;;;;;2.20;1.90;;;21.90;99.90;;;;;;7387916;19;20159;-73
2022/07/29 03:39:43;;;;;;;2.55;2.20;;;22.20;99.90;;;;;;7388622;19;20559;-73
2022/07/29 03:42:13;;;;;;;3.47;2.58;;;22.20;99.90;;;;;;7390482;19;20147;-72
2022/07/29 03:44:42;;;;;;;2.80;2.33;;;22.30;99.90;;;;;;7393099;19;20201;-73
2022/07/29 03:47:10;;;;;;;3.53;2.30;;;22.30;99.90;;;;;;7386302;19;20502;-73
2022/07/29 03:49:39;;;;;;;2.50;2.20;;;22.50;99.90;;;;;;7391784;19;20875;-73
2022/07/29 03:52:05;;;;;;;2.72;2.00;;;22.60;99.90;;;;;;7390365;19;20474;-73
2022/07/29 03:54:31;;;;;;;2.35;2.15;;;22.70;99.90;;;;;;7388551;19;20146;-73
2022/07/29 03:57:00;;;;;;;2.42;1.90;;;22.70;99.90;;;;;;7387748;19;20161;-73
2022/07/29 03:59:27;;;;;;;2.58;2.38;;;22.50;99.90;;;;;;7389921;19;20150;-73
2022/07/29 04:01:55;;;;;;;4.97;2.55;;;22.60;99.90;;;;;;7390550;19;20134;-74
2022/07/29 04:04:21;;;;;;;4.03;1.80;;;22.70;99.90;;;;;;7390025;19;20203;-74
2022/07/29 04:06:47;;;;;;;2.22;2.00;;;22.70;99.90;;;;;;7388209;19;20198;-74
2022/07/29 04:09:13;;;;;;;2.58;2.15;;;22.70;99.90;;;;;;7389572;19;20167;-74
2022/07/29 04:11:40;;;;;;;2.75;2.03;;;22.60;99.90;;;;;;7391064;19;20150;-75
2022/07/29 04:14:06;;;;;;;2.33;2.13;;;22.60;99.90;;;;;;7386155;19;20188;-74
2022/07/29 04:16:32;;;;;;;2.60;2.10;;;22.60;99.90;;;;;;7388688;19;20131;-73
2022/07/29 04:18:58;;;;;;;2.30;2.10;;;22.60;99.90;;;;;;7390647;19;20130;-73
2022/07/29 04:21:24;;;;;;;2.50;2.22;;;22.60;99.90;;;;;;7390156;19;20600;-72
2022/07/29 04:23:50;;;;;;;2.75;2.20;;;22.60;99.90;;;;;;7395443;19;20134;-74
2022/07/29 04:26:20;;;;;;;2.85;1.92;;;22.60;99.90;;;;;;7395168;19;20627;-74
2022/07/29 04:28:46;;;;;;;2.50;2.30;;;22.50;99.90;;;;;;7395494;19;20166;-73
2022/07/29 04:31:13;;;;;;;4.15;1.70;;;22.50;99.90;;;;;;7396865;19;20486;-73
2022/07/29 04:33:39;;;;;;;2.63;1.98;;;22.50;99.90;;;;;;7397233;19;20218;-73
2022/07/29 04:36:05;;;;;;;2.08;1.90;;;22.50;99.90;;;;;;7397745;19;20139;-73
2022/07/29 04:38:31;;;;;;;1.90;1.70;;;22.50;99.90;;;;;;7394865;19;20486;-73
2022/07/29 04:40:56;;;;;;;3.42;2.25;;;22.50;99.90;;;;;;7396337;19;20613;-73
2022/07/29 04:43:22;;;;;;;2.10;1.92;;;22.50;99.90;;;;;;7395583;19;20151;-73
2022/07/29 04:45:48;;;;;;;1.88;1.65;;;22.60;99.90;;;;;;7395677;19;20572;-75
2022/07/29 04:48:14;;;;;;;1.95;1.85;;;22.60;99.90;;;;;;7395074;19;20158;-73
2022/07/29 04:50:40;;;;;;;2.72;2.08;;;22.50;99.90;;;;;;7394843;19;20145;-74
2022/07/29 04:53:07;;;;;;;2.40;2.10;;;22.50;99.90;;;;;;7395426;19;20142;-74
2022/07/29 04:55:33;;;;;;;2.45;1.80;;;22.50;99.90;;;;;;7394757;19;20155;-71
2022/07/29 04:57:58;;;;;;;2.55;1.92;;;22.40;99.90;;;;;;7395261;19;20619;-72
2022/07/29 05:00:24;;;;;;;2.80;2.03;;;22.40;99.90;;;;;;7392579;19;20138;-72
2022/07/29 05:02:50;;;;;;;2.83;2.08;;;22.40;99.90;;;;;;7392539;19;20238;-72
2022/07/29 05:05:16;;;;;;;2.40;2.15;;;22.50;99.90;;;;;;7391808;19;20138;-71
2022/07/29 05:07:41;;;;;;;3.17;2.00;;;22.50;99.90;;;;;;7395853;19;20158;-72
2022/07/29 05:10:08;;;;;;;2.55;2.25;;;22.60;99.90;;;;;;7396071;19;20134;-71
2022/07/29 05:12:34;;;;;;;4.85;2.40;;;22.70;99.90;;;;;;7396300;19;20143;-72
2022/07/29 05:15:00;;;;;;;2.63;2.13;;;22.70;99.90;;;;;;7394666;19;20779;-71
2022/07/29 05:17:26;;;;;;;2.65;2.13;;;22.60;99.90;;;;;;7395772;19;20138;-71
2022/07/29 05:19:52;;;;;;;2.05;1.90;;;22.70;99.90;;;;;;7396540;19;20267;-72
2022/07/29 05:22:21;;;;;;;2.83;2.20;;;22.70;99.90;;;;;;7389903;19;21072;-72
2022/07/29 05:24:47;;;;;;;3.63;1.98;;;22.80;99.90;;;;;;7395012;19;20573;-71
2022/07/29 05:27:12;;;;;;;4.03;1.92;;;22.80;99.90;;;;;;7391498;19;20181;-72
2022/07/29 05:29:38;;;;;;;2.50;1.65;;;22.80;99.90;;;;;;7394384;19;20142;-71
2022/07/29 05:32:04;;;;;;;3.70;2.67;;;22.80;99.90;;;;;;7388817;19;20849;-71
2022/07/29 05:34:31;;;;;;;2.45;2.05;;;22.80;99.90;;;;;;7390781;19;20504;-72
2022/07/29 05:36:57;;;;;;;2.35;1.90;;;22.80;99.90;;;;;;7389224;19;20230;-73
2022/07/29 05:39:23;;;;;;;4.25;3.15;;;22.80;99.90;;;;;;7393765;19;20154;-73
2022/07/29 05:41:49;;;;;;;3.88;2.60;;;22.70;99.90;;;;;;7392756;19;20476;-71
2022/07/29 05:44:15;;;;;;;4.22;3.38;;;22.70;99.90;;;;;;7392766;19;20142;-72
2022/07/29 05:46:41;;;;;;;3.42;2.95;;;22.90;99.90;;;;;;7394163;19;20141;-71
2022/07/29 05:49:07;;;;;;;3.80;2.20;;;22.90;99.90;;;;;;7390262;19;20130;-71
2022/07/29 05:51:36;;;;;;;2.45;2.00;;;23.10;99.90;;;;;;7392992;19;20135;-71
2022/07/29 05:54:02;;;;;;;2.60;2.00;;;23.10;99.90;;;;;;7390026;19;20522;-71
2022/07/29 05:56:28;;;;;;;1.63;1.52;;;23.10;99.90;;;;;;7393814;19;20135;-72
2022/07/29 05:58:54;;;;;;;3.17;1.73;;;23.20;99.90;;;;;;7395941;19;20145;-74
2022/07/29 06:01:20;;;;;;;3.33;1.73;;;23.20;99.90;;;;;;7396223;19;20601;-73
2022/07/29 06:03:46;;;;;;;2.50;1.38;;;23.40;99.90;;;;;;7392930;19;20127;-71
2022/07/29 06:06:12;;;;;;;2.08;1.75;;;23.40;99.90;;;;;;7392234;19;20145;-73
2022/07/29 06:08:38;;;;;;;1.92;1.70;;;23.40;99.90;;;;;;7391283;19;20154;-73
2022/07/29 06:11:05;;;;;;;2.38;1.80;;;23.40;99.90;;;;;;7392581;19;20210;-73
2022/07/29 06:13:30;;;;;;;6.40;4.25;;;23.60;99.90;;;;;;7392095;19;20226;-72
2022/07/29 06:15:56;;;;;;;2.30;2.10;;;23.50;99.90;;;;;;7393200;19;20143;-73
2022/07/29 06:18:23;;;;;;;2.65;1.70;;;23.50;99.90;;;;;;7389966;19;20147;-72
2022/07/29 06:20:53;;;;;;;1.88;1.60;;;23.50;99.90;;;;;;7391783;19;20172;-72
2022/07/29 06:23:19;;;;;;;7.30;4.85;;;23.50;99.90;;;;;;7389975;19;20131;-71
2022/07/29 06:25:45;;;;;;;2.28;2.08;;;23.60;99.90;;;;;;7393410;19;20194;-71
2022/07/29 06:28:11;;;;;;;2.83;1.92;;;23.60;99.90;;;;;;7392397;19;20472;-71
2022/07/29 06:30:38;;;;;;;2.13;1.92;;;24.00;99.90;;;;;;7391685;19;20137;-72
2022/07/29 06:33:04;;;;;;;2.65;1.60;;;24.50;99.90;;;;;;7388996;19;20154;-73
2022/07/29 06:35:30;;;;;;;2.47;1.77;;;25.20;99.90;;;;;;7391653;19;20162;-71
2022/07/29 06:37:55;;;;;;;5.13;4.13;;;25.90;99.90;;;;;;7389091;19;20202;-72
2022/07/29 06:43:06;;;;;;;2.33;2.03;;;27.00;99.90;;;;;;7391163;19;20438;-72
2022/07/29 06:45:35;;;;;;;2.50;2.30;;;27.30;99.90;;;;;;7390235;19;20134;-72
2022/07/29 06:48:00;;;;;;;2.58;2.38;;;27.90;99.90;;;;;;7390411;19;20151;-74
2022/07/29 06:50:26;;;;;;;2.55;2.17;;;28.30;99.90;;;;;;7387764;19;20517;-73
2022/07/29 06:52:52;;;;;;;1.63;1.52;;;28.60;99.90;;;;;;7385204;19;20131;-72
2022/07/29 06:55:19;;;;;;;3.00;1.90;;;28.30;99.90;;;;;;7392575;19;20148;-73
2022/07/29 06:57:46;;;;;;;2.83;2.20;;;28.10;99.90;;;;;;7390027;19;20139;-72
2022/07/29 07:00:12;;;;;;;2.60;2.15;;;28.10;99.90;;;;;;7389967;19;20139;-72
2022/07/29 07:02:40;;;;;;;1.98;1.88;;;28.00;99.90;;;;;;7383476;19;20164;-72
2022/07/29 07:05:08;;;;;;;4.88;2.40;;;28.20;99.90;;;;;;7389114;19;20150;-72
2022/07/29 07:07:35;;;;;;;2.22;1.83;;;28.50;99.90;;;;;;7390423;19;20893;-71
2022/07/29 07:10:03;;;;;;;2.15;1.95;;;28.80;99.90;;;;;;7388385;19;20138;-72
2022/07/29 07:12:30;;;;;;;1.92;1.70;;;29.30;99.90;;;;;;7388606;19;20173;-72
2022/07/29 07:14:58;;;;;;;3.90;2.20;;;29.50;99.90;;;;;;7389668;19;20599;-72
2022/07/29 07:17:24;;;;;;;2.63;2.38;;;29.20;99.90;;;;;;7387101;19;20142;-72
2022/07/29 07:19:51;;;;;;;3.38;2.20;;;28.80;99.90;;;;;;7391705;19;20668;-73
2022/07/29 07:22:18;;;;;;;2.53;1.77;;;28.60;99.90;;;;;;7386372;19;20158;-71
2022/07/29 07:24:46;;;;;;;2.33;1.85;;;28.40;99.90;;;;;;7391114;19;20142;-72
2022/07/29 07:27:12;;;;;;;2.20;1.83;;;28.30;99.90;;;;;;7387921;19;20157;-71
2022/07/29 07:29:40;;;;;;;3.03;2.55;;;28.50;99.90;;;;;;7387458;19;20593;-72
2022/07/29 07:32:08;;;;;;;2.70;2.50;;;28.60;99.90;;;;;;7387764;19;20210;-71
2022/07/29 07:34:37;;;;;;;1.90;1.80;;;28.50;99.90;;;;;;7386267;19;20450;-72
2022/07/29 07:37:03;;;;;;;2.45;2.00;;;28.10;99.90;;;;;;7388962;19;20142;-71
2022/07/29 07:39:30;;;;;;;4.45;3.63;;;28.20;99.90;;;;;;7388092;19;20624;-72
2022/07/29 07:41:56;;;;;;;2.63;2.10;;;28.00;99.90;;;;;;7388578;19;20491;-71
2022/07/29 07:44:21;;;;;;;3.65;2.03;;;27.70;99.90;;;;;;7389628;19;20167;-74
2022/07/29 07:46:47;;;;;;;2.20;1.98;;;27.40;99.90;;;;;;7384067;19;20139;-71
2022/07/29 07:49:13;;;;;;;2.67;2.10;;;27.30;99.90;;;;;;7387470;19;20131;-70
2022/07/29 07:51:39;;;;;;;5.10;2.10;;;27.70;99.90;;;;;;7388244;19;20631;-70
2022/07/29 07:54:04;;;;;;;3.28;2.10;;;28.00;99.90;;;;;;7387628;19;20160;-70
2022/07/29 07:56:30;;;;;;;3.67;2.17;;;28.20;99.90;;;;;;7386519;19;20861;-71
2022/07/29 07:58:56;;;;;;;3.33;2.00;;;28.10;99.90;;;;;;7388299;19;20150;-71
2022/07/29 08:01:23;;;;;;;3.22;2.38;;;28.10;99.90;;;;;;7386474;19;20161;-70
2022/07/29 08:03:49;;;;;;;6.00;2.47;;;28.20;99.90;;;;;;7389067;19;20202;-70
2022/07/29 08:06:15;;;;;;;4.25;2.67;;;28.40;99.90;;;;;;7384193;19;20667;-70
2022/07/29 08:08:41;;;;;;;3.47;2.42;;;28.60;99.90;;;;;;7388382;19;20143;-71
2022/07/29 08:11:07;;;;;;;3.40;2.10;;;28.80;99.90;;;;;;7385429;19;20192;-70
2022/07/29 08:13:33;;;;;;;3.42;1.90;;;29.00;99.90;;;;;;7383798;19;20615;-70
2022/07/29 08:16:11;;;;;;;4.55;2.22;;;29.30;99.90;;;;;;7390003;19;20166;-73
2022/07/29 08:18:37;;;;;;;3.00;1.90;;;29.50;99.90;;;;;;7388466;19;20151;-72
2022/07/29 08:21:04;;;;;;;3.58;2.00;;;30.00;99.90;;;;;;7391261;19;20170;-71
2022/07/29 08:23:44;;;;;;;2.55;2.33;;;30.00;99.90;;;;;;7388106;19;20126;-72
2022/07/29 08:26:11;;;;;;;2.63;2.00;;;30.10;99.90;;;;;;7384598;19;20194;-70
2022/07/29 08:28:38;;;;;;;3.67;2.22;;;29.90;99.90;;;;;;7388460;19;20617;-75
2022/07/29 08:31:04;;;;;;;3.60;3.28;;;29.70;99.90;;;;;;7389101;19;20222;-70
2022/07/29 08:33:30;;;;;;;6.25;3.13;;;29.30;99.90;;;;;;7389134;19;20147;-73
2022/07/29 08:35:56;;;;;;;2.97;2.17;;;29.40;99.90;;;;;;7385261;19;20148;-71
2022/07/29 08:38:22;;;;;;;3.25;2.40;;;29.60;99.90;;;;;;7384394;19;20198;-72
2022/07/29 08:40:48;;;;;;;2.30;2.10;;;29.60;99.90;;;;;;7386896;19;20148;-71
2022/07/29 08:43:13;;;;;;;3.60;2.20;;;29.40;99.90;;;;;;7386922;19;20134;-72
2022/07/29 08:45:45;;;;;;;3.58;2.55;;;29.30;99.90;;;;;;7385870;19;20278;-71
2022/07/29 08:48:16;;;;;;;8.48;6.80;;;29.20;99.90;;;;;;7389976;19;20210;-72
2022/07/29 08:50:43;;;;;;;2.80;2.20;;;29.20;99.90;;;;;;7383070;19;20182;-73
2022/07/29 08:53:14;;;;;;;3.67;2.35;;;29.30;99.90;;;;;;7388068;19;20153;-72
2022/07/29 08:55:46;;;;;;;3.70;2.47;;;29.20;99.90;;;;;;7385122;19;20139;-73
2022/07/29 08:58:13;;;;;;;4.68;3.03;;;29.20;99.90;;;;;;7387236;19;20228;-71
2022/07/29 09:00:46;;;;;;;5.50;4.10;;;29.20;99.90;;;;;;7387830;19;20535;-72
2022/07/29 09:03:16;;;;;;;2.45;2.22;;;29.30;99.90;;;;;;7384210;19;20242;-71
2022/07/29 09:05:44;;;;;;;2.92;2.30;;;29.20;99.90;;;;;;7387050;19;20142;-71
2022/07/29 09:08:11;;;;;;;3.05;2.30;;;29.30;99.90;;;;;;7384905;19;20845;-71
2022/07/29 09:10:37;;;;;;;4.57;2.40;;;29.10;99.90;;;;;;7390381;19;20161;-72
2022/07/29 09:13:03;;;;;;;5.20;2.63;;;29.10;99.90;;;;;;7392491;19;20554;-72
2022/07/29 09:15:29;;;;;;;5.00;2.20;;;29.10;99.90;;;;;;7395308;19;20134;-72
2022/07/29 09:17:56;;;;;;;2.70;2.40;;;29.10;99.90;;;;;;7388729;19;20130;-71
2022/07/29 09:20:22;;;;;;;2.72;2.10;;;28.80;99.90;;;;;;7395555;19;20155;-71
2022/07/29 09:22:50;;;;;;;5.68;2.63;;;28.70;99.90;;;;;;7388087;19;20171;-71
2022/07/29 09:25:33;;;;;;;5.47;2.65;;;28.80;99.80;;;;;;7393852;19;20147;-71
2022/07/29 09:28:16;;;;;;;5.25;2.35;;;28.80;99.50;;;;;;7391187;19;20536;-72
2022/07/29 09:30:58;;;;;;;4.25;2.58;;;28.70;99.20;;;;;;7392052;19;20620;-72
2022/07/29 09:33:31;;;;;;;4.63;2.40;;;28.70;99.40;;;;;;7391231;19;20147;-73
2022/07/29 09:36:07;;;;;;;5.82;2.67;;;28.80;99.60;;;;;;7392993;19;20507;-73
2022/07/29 09:38:35;;;;;;;3.75;2.33;;;28.90;99.50;;;;;;7393137;19;20560;-74
2022/07/29 09:41:03;;;;;;;4.25;2.40;;;28.80;99.50;;;;;;7390371;19;20155;-74
2022/07/29 09:43:29;;;;;;;3.30;2.25;;;28.70;99.30;;;;;;7390655;19;20131;-72
2022/07/29 09:45:55;;;;;;;3.42;2.60;;;28.70;99.00;;;;;;7391563;19;20170;-73
2022/07/29 09:48:23;;;;;;;4.63;2.70;;;28.60;98.60;;;;;;7389878;19;20140;-72
2022/07/29 09:50:49;;;;;;;3.45;2.55;;;28.50;98.50;;;;;;7391854;19;20142;-72
2022/07/29 09:53:36;;;;;;;4.15;2.30;;;28.30;98.40;;;;;;7392675;19;20135;-72
2022/07/29 09:56:03;;;;;;;6.10;2.90;;;28.00;98.60;;;;;;7389466;19;20150;-73
2022/07/29 09:58:29;;;;;;;3.60;2.47;;;28.00;98.90;;;;;;7392120;19;20600;-72
2022/07/29 10:00:56;;;;;;;5.07;2.75;;;27.90;99.00;;;;;;7388810;19;20153;-73
2022/07/29 10:03:22;;;;;;;4.35;3.75;;;28.00;99.20;;;;;;7391606;19;20158;-72
2022/07/29 10:06:09;;;;;;;3.83;2.88;;;28.10;99.00;;;;;;7390145;19;20134;-73
2022/07/29 10:08:36;;;;;;;3.13;2.50;;;28.20;98.40;;;;;;7390509;19;20175;-72
2022/07/29 10:11:14;;;;;;;4.05;2.42;;;28.20;98.70;;;;;;7388739;19;20620;-72
2022/07/29 10:13:41;;;;;;;2.80;2.55;;;28.20;98.30;;;;;;7389581;19;20384;-71
2022/07/29 10:16:08;;;;;;;7.15;4.63;;;28.10;98.70;;;;;;7393749;19;20154;-72
2022/07/29 10:18:34;;;;;;;5.13;3.10;;;28.10;98.70;;;;;;7388339;19;20151;-72
2022/07/29 10:21:00;;;;;;;4.07;3.00;;;28.10;98.70;;;;;;7386721;19;20175;-72
2022/07/29 10:23:29;;;;;;;3.72;3.33;;;28.10;98.80;;;;;;7393524;19;20620;-72
2022/07/29 10:25:55;;;;;;;2.85;2.60;;;28.20;98.60;;;;;;7393226;19;20914;-72
2022/07/29 10:28:20;;;;;;;5.68;2.85;;;28.10;98.20;;;;;;7392617;19;20149;-71
2022/07/29 10:30:50;;;;;;;3.78;2.67;;;28.00;98.50;;;;;;7387685;19;20167;-72
2022/07/29 10:33:53;;;;;;;4.28;2.72;;;27.80;98.70;;;;;;7390836;19;20146;-73
2022/07/29 10:36:35;;;;;;;3.47;2.92;;;27.70;98.90;;;;;;7385750;19;20179;-71
2022/07/29 10:39:17;;;;;;;3.75;3.15;;;27.50;99.10;;;;;;7390111;19;20138;-72
2022/07/29 10:42:23;;;;;;;4.57;2.58;;;27.40;99.40;;;;;;7392829;19;20514;-72
2022/07/29 10:44:49;;;;;;;6.97;3.20;;;27.50;99.30;;;;;;7389708;19;20191;-71
2022/07/29 10:47:26;;;;;;;5.13;3.13;;;27.40;99.90;;;;;;7391114;19;20513;-71
2022/07/29 10:50:03;;;;;;;6.97;3.30;;;27.30;99.90;;;;;;7390214;19;20643;-72
2022/07/29 10:52:58;;;;;;;4.88;2.75;;;27.10;99.90;;;;;;7389385;19;20154;-72
2022/07/29 10:55:34;;;;;;;8.82;4.53;;;26.90;99.90;;;;;;7388025;19;20155;-72
2022/07/29 10:58:18;;;;;;;5.70;3.72;;;26.80;99.90;;;;;;7388987;19;20160;-72
2022/07/29 11:00:49;;;;;;;6.25;3.72;;;26.70;99.90;;;;;;7391756;19;20142;-72
2022/07/29 11:03:48;;;;;;;9.05;6.60;;;26.60;99.90;;;;;;7390420;19;20588;-72
2022/07/29 11:06:14;;;;;;;10.52;5.80;;;26.30;99.90;;;;;;7384255;19;20166;-70
2022/07/29 11:08:41;;;;;;;10.18;5.03;;;26.20;99.90;;;;;;7386766;19;20151;-71
2022/07/29 11:11:18;;;;;;;10.43;6.50;;;25.80;99.90;;;;;;7388228;19;20145;-72
2022/07/29 11:13:47;;;;;;;8.40;5.82;;;24.90;99.90;;;;;;7389485;19;20154;-72
2022/07/29 11:16:14;;;;;;;5.57;4.80;;;24.10;99.90;;;;;;7386806;19;20142;-71
2022/07/29 11:19:15;;;;;;;6.20;4.65;;;23.60;99.90;;;;;;7386977;19;20206;-73
2022/07/29 11:21:43;;;;;;;12.18;5.50;;;23.00;99.90;;;;;;7383510;19;20184;-73
2022/07/29 11:24:13;;;;;;;7.45;5.15;;;22.60;99.90;;;;;;7387623;19;20460;-72
2022/07/29 11:26:40;;;;;;;10.05;5.78;;;22.30;99.90;;;;;;7387742;19;20623;-71
2022/07/29 11:29:22;;;;;;;8.20;6.07;;;22.20;99.90;;;;;;7392083;19;20130;-72
2022/07/29 11:31:53;;;;;;;9.23;5.70;;;22.20;99.90;;;;;;7387175;19;20134;-73
2022/07/29 11:34:23;;;;;;;9.55;6.47;;;22.10;99.90;;;;;;7388111;19;20134;-73
2022/07/29 11:37:09;;;;;;;6.90;5.15;;;22.10;99.90;;;;;;7387916;19;20134;-72
2022/07/29 11:39:40;;;;;;;5.43;4.50;;;22.10;99.90;;;;;;7385332;19;20134;-73
2022/07/29 11:42:23;;;;;;;5.22;4.25;;;21.90;99.90;;;;;;7387267;19;20206;-71
2022/07/29 11:45:01;;;;;;;7.68;4.60;;;21.90;99.90;;;;;;7390393;19;20186;-74
2022/07/29 11:47:28;;;;;;;6.13;4.10;;;21.70;99.90;;;;;;7382466;19;20617;-72
2022/07/29 11:49:59;;;;;;;4.47;3.90;;;21.50;99.90;;;;;;7387151;19;20834;-72
2022/07/29 11:52:42;;;;;;;5.00;4.05;;;21.40;99.90;;;;;;7387005;19;20131;-73
2022/07/29 11:55:10;;;;;;;6.90;4.13;;;21.40;99.90;;;;;;7385438;19;20133;-72
2022/07/29 11:57:36;;;;;;;7.57;4.50;;;21.50;99.90;;;;;;7391158;19;20142;-71
2022/07/29 12:00:07;;;;;;;5.55;4.88;;;21.70;99.90;;;;;;7388390;19;20137;-73
2022/07/29 12:02:41;;;;;;;6.07;4.90;;;22.00;99.90;;;;;;7388334;19;20729;-72
2022/07/29 12:05:08;;;;;;;6.00;4.88;;;22.10;99.90;;;;;;7387344;19;20130;-68
2022/07/29 12:07:34;;;;;;;4.70;4.22;;;22.30;99.90;;;;;;7386596;19;20119;-68
2022/07/29 12:10:01;;;;;;;5.07;4.57;;;22.40;99.90;;;;;;7387656;19;20159;-68
2022/07/29 12:12:27;;;;;;;6.00;5.22;;;22.50;99.90;;;;;;7389586;19;20141;-67
2022/07/29 12:14:55;;;;;;;7.10;4.65;;;22.50;99.90;;;;;;7385569;19;20158;-68
2022/07/29 12:17:29;;;;;;;7.20;4.47;;;22.60;99.90;;;;;;7386035;19;20142;-69
2022/07/29 12:19:57;;;;;;;4.75;4.13;;;22.70;99.90;;;;;;7385826;19;20176;-68
2022/07/29 12:22:37;;;;;;;5.47;4.22;;;22.80;99.90;;;;;;7383481;19;20150;-67
2022/07/29 12:25:11;;;;;;;4.90;4.15;;;22.90;99.90;;;;;;7388331;19;20631;-69
2022/07/29 12:27:38;;;;;;;4.55;3.40;;;23.10;99.90;;;;;;7386281;19;20237;-69
2022/07/29 12:30:13;;;;;;;3.58;3.28;;;23.20;99.90;;;;;;7385067;19;20138;-69
2022/07/29 12:32:43;;;;;;;3.53;3.22;;;23.30;99.90;;;;;;7389731;19;20246;-68
2022/07/29 12:35:13;;;;;;;3.03;2.67;;;23.40;99.90;;;;;;7390294;19;20131;-69
2022/07/29 12:37:40;;;;;;;3.33;3.03;;;23.40;99.90;;;;;;7389732;19;20135;-67
2022/07/29 12:40:08;;;;;;;3.90;3.10;;;23.50;99.90;;;;;;7389608;19;20143;-68
2022/07/29 12:42:35;;;;;;;3.83;3.13;;;23.50;99.90;;;;;;7386798;19;20134;-69
2022/07/29 12:45:01;;;;;;;5.13;3.17;;;23.50;99.90;;;;;;7393436;19;20138;-68
2022/07/29 12:47:27;;;;;;;2.90;2.65;;;23.50;99.90;;;;;;7389664;19;20131;-69
2022/07/29 12:50:12;;;;;;;4.88;3.50;;;23.50;99.90;;;;;;7394933;19;20138;-68
2022/07/29 12:52:38;;;;;;;7.00;3.67;;;23.60;99.90;;;;;;7397406;19;20272;-65
2022/07/29 12:55:04;;;;;;;4.25;3.80;;;23.60;99.90;;;;;;7393871;19;20142;-67
2022/07/29 12:57:31;;;;;;;4.78;3.50;;;23.50;99.90;;;;;;7395856;19;20138;-68
2022/07/29 13:00:04;;;;;;;3.65;3.15;;;23.60;99.90;;;;;;7396503;19;20154;-67
2022/07/29 13:02:30;;;;;;;3.58;2.90;;;23.50;99.90;;;;;;7396860;19;20568;-67